Perth International Airport
YPPH : now visible

Aeroporto :











RITROVATECI SU...

 
LOGIN :

Iscrizione | Disclaimer

   EN    FR    IT 

 









Sommario :    VFR   VFR Marginale   IFR   IFR Intensivo   IFR Molto Intensivo
Visibilità : 
Base nubi : 
>= 8 km
>= 3000ft
5 / 8 km
1000 / 3000 ft
1500m / 5 km
500 / 1000 ft
800 / 1500m
200 / 500 ft
< 800m
< 200 ft
Simboli :   Temporali  Nebbia  Neve Forte  Precipitazioni Forti  Vento > 20 kt






- Altitudine del aeroporto : 67 ft
- Codice IATA : PER


YPPH - Perth International

ULTIMO METAR :
  • 252130Z 05004KT 020V080 9999 -DZ FEW012 SCT038 10/09 Q1018 INTER 2130/0000 4000 SHRA SCT010 BKN015

METARs OBSOLETI :
  • 252100Z 09005KT 9999 -DZ FEW012 SCT040 10/09 Q1018 INTER 2100/2300 4000 SHRA SCT010 BKN015
  • 252042Z 05006KT 9999 FEW030 SCT046 10/09 Q1017 FM2042 VRB03KT 9999 -SHRA SCT045 INTER 2042/2300 4000 SHRA SCT010 BKN015
  • 252030Z 06004KT 360V150 5000 -DZ FEW012 BKN030 10/09 Q1018 FM2045 VRB03KT 9999 -SHRA SCT045
  • 252000Z 07001KT 8000 -DZ FEW020 BKN030 09/09 Q1018 NOSIG
  • 251930Z AUTO 02004KT 340V050 8000 -SHRA SCT024 SCT027 BKN036 09/08 Q1017
  • 251921Z AUTO 33003KT 6000 -RA BKN027 BKN033 OVC038 10/09 Q1017 FM1930 VRB03KT 9999 -SHRA SCT045
  • 251900Z 36006KT 320V020 9000 -DZ SCT030 SCT050 10/09 Q1017 NOSIG

TAF AMD TAF YPPH
Valido dal 25 a 20 ore il 27 a 00 ore UTC


252040Z 2520/2700 VRB03KT 9999 -SHRA SCT045
FM252100 04005KT 9999 -SHRA BKN030
FM260600 34006KT 9999 -SHRA BKN040 INTER 2520/2523 4000 SHRA SCT010 BKN015
FIR YMMM / Oceania



MetMap, La meteo Aeronautica in un colpo d'occhio ! - Copyright ORBIFLY Dicembre 2007 - Disclaimer

ORBIFLY MET'MAP TEAM :

Programmazione e sviluppo : Alexandra Zaïnal
Concezione : Baudouin d'Aumeries
Aiuto per la programmazione : Marc-Olivier Méhu
Supporto tecnico e logistico : Manuel Goepfert
Aiuto per la traduzione : Arnaldo La Scala

Contatto : metmap@orbifly.com




FONTI E CREDITI :

   NOAA       Earth
Advisory